KNQX/NQX METAR and TAF weather

Enter ICAO airport designator
Station Type Date Time Source
KNQX METAR 2018/12/17 16:53 UTC NOAA

KNQX 171653Z 02004KT 10SM SCT020 22/16 A3015 RMK AO2 SLP207 T02170156


Station Type Date Time Source
KNQX Decoded METAR 2018/12/17 16:53 UTC NOAA

KEY WEST NAVAL AIR STATION, FL, United States (KNQX) 24-35N 81-41W 6M
Dec 17, 2018 - 11:53 AM EST / 2018.12.17 1653 UTC
Wind: from the NNE (020 degrees) at 5 MPH (4 KT):0
Visibility: 10 mile(s):0
Sky conditions: partly cloudy
Temperature: 71.1 F (21.7 C)
Dew Point: 60.1 F (15.6 C)
Relative Humidity: 68%
Pressure (altimeter): 30.15 in. Hg (1020 hPa)
ob: KNQX 171653Z 02004KT 10SM SCT020 22/16 A3015 RMK AO2 SLP207 T02170156
cycle: 17

Station Type Date Time Source
KNQX TAF 2018/12/17 15:47 UTC NOAA

TAF KNQX 1715/1815 01010KT 9999 SCT025 SCT250 QNH3007INS T24/1719Z T19/1811Z FN20027


Example: see airport list